createdAt,value
2018-06-14T00:38:43.832Z,87.90
2018-06-14T00:45:27.540Z,86.60
2018-06-14T00:54:18.024Z,85.70
2018-06-14T02:05:35.970Z,86.40
2018-06-14T02:16:43.294Z,85.40
2018-06-14T03:02:45.481Z,85.00
2018-06-14T03:08:07.015Z,84.20
2018-06-14T03:13:51.691Z,83.40
2018-06-14T03:16:52.088Z,83.20
2018-06-14T03:19:55.503Z,82.90
2018-06-14T03:23:40.543Z,83.00
2018-06-14T03:26:20.171Z,83.20
2018-06-14T03:32:23.805Z,82.80
2018-06-14T03:35:05.495Z,82.80
2018-06-14T03:40:30.704Z,82.50
2018-06-14T04:00:06.077Z,81.90
2018-06-14T04:04:32.297Z,82.00
2018-06-14T04:20:10.005Z,82.80
2018-06-14T04:37:06.996Z,82.30
2018-06-14T04:39:49.145Z,82.20
2018-06-14T05:07:00.953Z,84.00
2018-06-14T05:09:31.645Z,83.70
2018-06-14T05:59:50.930Z,81.40
2018-06-14T06:02:38.484Z,78.40
2018-06-14T06:05:16.084Z,76.20
2018-06-14T06:13:45.000Z,72.70
2018-06-14T06:48:06.610Z,78.00
2018-06-14T06:50:45.112Z,79.00
2018-06-14T06:53:37.071Z,73.50
2018-06-14T06:59:21.867Z,74.80
2018-06-14T07:02:03.625Z,73.20
2018-06-14T07:04:32.915Z,72.50
2018-06-14T07:09:30.590Z,70.80
2018-06-14T07:12:11.273Z,67.10
2018-06-14T07:17:14.870Z,67.20
2018-06-14T07:19:50.660Z,65.30
2018-06-14T07:22:22.261Z,64.20
2018-06-14T07:24:52.740Z,67.20
2018-06-14T07:27:23.369Z,65.80
2018-06-14T07:29:52.490Z,63.30
2018-06-14T07:39:51.451Z,67.80
2018-06-14T07:42:22.827Z,63.60
2018-06-14T07:44:52.240Z,63.50
2018-06-14T07:47:25.601Z,66.90
2018-06-14T07:49:58.150Z,66.60
2018-06-14T07:52:28.777Z,65.70
2018-06-14T07:55:07.984Z,63.40
2018-06-14T07:57:44.787Z,65.70
2018-06-14T08:00:26.159Z,59.80
2018-06-14T08:02:56.387Z,61.80
2018-06-14T08:05:31.803Z,62.70
2018-06-14T08:08:02.737Z,61.20
2018-06-14T08:10:37.466Z,58.90
2018-06-14T08:13:25.149Z,58.00
2018-06-14T08:21:43.093Z,59.70
2018-06-14T08:26:50.730Z,61.80
2018-06-14T08:31:53.652Z,60.40
2018-06-14T08:37:00.508Z,60.20
2018-06-14T08:39:38.273Z,59.40
2018-06-14T08:42:07.884Z,60.40
2018-06-14T08:44:39.913Z,61.10
2018-06-14T08:47:15.848Z,62.00
2018-06-14T08:49:51.703Z,62.50
2018-06-14T08:52:23.819Z,60.40
2018-06-14T08:54:54.374Z,62.00
2018-06-14T08:57:29.218Z,62.30
2018-06-14T09:00:00.851Z,61.00
2018-06-14T09:02:32.635Z,63.40
2018-06-14T09:07:33.128Z,64.20
2018-06-14T09:10:09.940Z,62.90
2018-06-14T09:15:21.644Z,63.40
2018-06-14T09:17:55.475Z,63.00
2018-06-14T09:20:26.867Z,63.70
2018-06-14T09:22:59.646Z,63.80
2018-06-14T09:25:30.771Z,63.70
2018-06-14T09:30:32.567Z,62.60
2018-06-14T09:33:17.335Z,59.50
2018-06-14T09:35:57.873Z,59.00
2018-06-14T09:38:35.005Z,60.00
2018-06-14T09:41:09.047Z,59.90
2018-06-14T09:43:44.284Z,60.70
2018-06-14T09:46:16.815Z,59.90
2018-06-14T09:49:09.827Z,60.50
2018-06-14T09:51:41.399Z,59.20
2018-06-14T09:54:22.036Z,61.10
2018-06-14T09:56:59.744Z,58.70
2018-06-14T10:02:03.526Z,57.10
2018-06-14T10:04:37.162Z,58.30
2018-06-14T10:07:13.256Z,58.90
2018-06-14T10:09:49.597Z,58.20
2018-06-14T10:12:27.444Z,58.60
2018-06-14T10:14:57.956Z,59.00
2018-06-14T10:17:31.267Z,57.80
2018-06-14T10:20:07.568Z,59.00
2018-06-14T10:22:42.978Z,58.00
2018-06-14T10:25:19.461Z,59.50
2018-06-14T10:27:49.262Z,59.00
2018-06-14T10:30:22.673Z,60.20
2018-06-14T10:33:06.469Z,58.30
2018-06-14T10:35:36.752Z,58.10
2018-06-14T10:38:11.162Z,58.90
2018-06-14T10:40:50.620Z,56.90
2018-06-14T10:46:07.922Z,57.40
2018-06-14T10:48:42.954Z,57.80
2018-06-14T10:51:19.363Z,57.70
2018-06-14T10:53:59.108Z,58.70
2018-06-14T10:56:32.556Z,58.20
2018-06-14T11:04:25.607Z,57.60
2018-06-14T11:07:01.186Z,56.70
2018-06-14T11:09:36.481Z,56.80
2018-06-14T11:12:30.387Z,56.20
2018-06-14T11:15:07.425Z,57.30
2018-06-14T11:17:39.492Z,57.30
2018-06-14T11:20:10.078Z,56.60
2018-06-14T11:22:47.902Z,56.30
2018-06-14T11:25:32.264Z,58.00
2018-06-14T11:28:18.888Z,57.00
2018-06-14T11:33:45.899Z,54.80
2018-06-14T11:36:32.196Z,58.20
2018-06-14T11:39:17.333Z,55.20
2018-06-14T11:41:53.500Z,56.40
2018-06-14T11:44:31.008Z,54.90
2018-06-14T11:47:01.478Z,52.80
2018-06-14T11:52:09.812Z,54.10
2018-06-14T11:54:41.198Z,54.90
2018-06-14T11:57:09.524Z,55.20
2018-06-14T11:59:38.626Z,56.40
2018-06-14T12:02:09.374Z,55.30
2018-06-14T12:04:50.377Z,54.60
2018-06-14T12:07:40.674Z,54.30
2018-06-14T12:10:30.645Z,54.70
2018-06-14T12:13:09.208Z,54.70
2018-06-14T12:15:37.677Z,51.90
2018-06-14T12:18:08.709Z,51.20
2018-06-14T12:20:40.639Z,51.80
2018-06-14T12:23:22.680Z,51.50
2018-06-14T12:26:01.642Z,51.50
2018-06-14T12:28:29.931Z,50.10
2018-06-14T12:35:58.234Z,53.00
2018-06-14T12:38:33.206Z,54.30
2018-06-14T12:41:04.882Z,54.10
2018-06-14T12:43:34.273Z,53.80
2018-06-14T12:46:08.661Z,52.50
2018-06-14T12:48:40.411Z,53.30
2018-06-14T12:51:11.877Z,53.40
2018-06-14T12:53:42.331Z,52.90
2018-06-14T12:56:20.608Z,50.70
2018-06-14T13:01:21.261Z,53.00
2018-06-14T13:03:50.581Z,53.90
2018-06-14T13:06:24.117Z,52.70
2018-06-14T13:08:52.865Z,53.40
2018-06-14T13:11:30.816Z,50.60
2018-06-14T13:16:34.734Z,50.80
2018-06-14T13:21:40.066Z,52.60
2018-06-14T13:24:14.071Z,51.80
2018-06-14T13:26:43.252Z,52.10
2018-06-14T13:29:17.200Z,53.40
2018-06-14T13:31:49.216Z,51.40
2018-06-14T13:34:17.837Z,52.20
2018-06-14T13:36:52.632Z,53.10
2018-06-14T13:39:25.901Z,53.50
2018-06-14T13:42:02.507Z,53.20
2018-06-14T13:44:35.201Z,53.30
2018-06-14T13:47:04.848Z,53.00
2018-06-14T13:49:35.403Z,52.90
2018-06-14T13:52:08.510Z,52.50
2018-06-14T13:54:43.415Z,52.80
2018-06-14T13:57:19.085Z,51.50
2018-06-14T14:05:07.042Z,51.20
2018-06-14T14:07:38.431Z,52.10
2018-06-14T14:12:42.697Z,51.80
2018-06-14T14:15:16.854Z,51.30
2018-06-14T14:17:59.611Z,50.10
2018-06-14T14:20:32.492Z,51.20
2018-06-14T14:25:52.764Z,51.80
2018-06-14T14:28:24.377Z,51.60
2018-06-14T14:31:00.376Z,51.80
2018-06-14T14:33:31.363Z,51.30
2018-06-14T14:35:59.613Z,51.80
2018-06-14T14:38:28.061Z,51.00
2018-06-14T14:40:56.258Z,51.50
2018-06-14T14:43:24.455Z,51.00
2018-06-14T14:45:52.644Z,50.80
2018-06-14T14:48:20.837Z,51.50
2018-06-14T14:53:17.107Z,50.50
2018-06-14T14:55:45.187Z,51.40
2018-06-14T14:58:13.369Z,50.30
2018-06-14T15:00:41.563Z,51.60
2018-06-14T15:03:09.742Z,52.60
2018-06-14T15:05:37.960Z,52.30
2018-06-14T15:08:06.147Z,51.70
2018-06-14T15:10:34.323Z,50.60
2018-06-14T15:13:02.523Z,52.00
2018-06-14T15:15:30.729Z,52.40
2018-06-14T15:17:59.038Z,52.10
2018-06-14T15:20:27.227Z,51.40
2018-06-14T15:22:55.431Z,53.20
2018-06-14T15:25:23.605Z,51.00
2018-06-14T15:27:51.841Z,50.90
2018-06-14T15:30:20.042Z,51.70
2018-06-14T15:32:48.774Z,51.30
2018-06-14T15:35:16.961Z,50.70
2018-06-14T15:40:13.067Z,51.10
2018-06-14T15:42:41.267Z,50.70
2018-06-14T15:47:37.398Z,50.10
2018-06-14T15:50:05.591Z,50.50
2018-06-14T15:55:12.989Z,51.60
2018-06-14T15:57:41.200Z,50.80
2018-06-14T16:00:09.951Z,49.90
2018-06-14T16:02:38.144Z,50.30
2018-06-14T16:05:06.335Z,51.90
2018-06-14T16:07:34.522Z,50.70
2018-06-14T16:10:02.706Z,51.20
2018-06-14T16:12:30.901Z,51.70
2018-06-14T16:14:59.090Z,53.00
2018-06-14T16:17:27.274Z,52.20
2018-06-14T16:22:23.402Z,51.10
2018-06-14T16:24:51.588Z,51.30
2018-06-14T16:29:47.722Z,50.80
2018-06-14T16:34:43.872Z,50.80
2018-06-14T16:37:12.079Z,51.20
2018-06-14T16:39:40.266Z,50.10
2018-06-14T16:42:08.473Z,50.60
2018-06-14T16:44:36.647Z,51.40
2018-06-14T16:47:04.859Z,51.30
2018-06-14T16:49:33.035Z,51.20
2018-06-14T16:52:01.249Z,51.60
2018-06-14T16:54:29.445Z,50.90
2018-06-14T16:56:57.627Z,51.10
2018-06-14T16:59:25.809Z,50.70
2018-06-14T17:01:54.053Z,50.60
2018-06-14T17:04:22.235Z,52.00
2018-06-14T17:06:51.543Z,51.90
2018-06-14T17:09:19.717Z,51.80
2018-06-14T17:11:47.908Z,51.30
2018-06-14T17:16:44.008Z,52.50
2018-06-14T17:19:12.195Z,50.10
2018-06-14T17:21:40.389Z,52.00
2018-06-14T17:24:08.576Z,52.40
2018-06-14T17:26:36.769Z,52.70
2018-06-14T17:29:04.946Z,53.00
2018-06-14T17:31:33.123Z,53.10
2018-06-14T17:34:01.319Z,53.30
2018-06-14T17:36:29.501Z,52.60
2018-06-14T17:38:57.721Z,51.40
2018-06-14T17:41:26.005Z,51.80
2018-06-14T17:43:54.107Z,52.40
2018-06-14T17:46:22.310Z,52.20
2018-06-14T17:48:50.503Z,52.40
2018-06-14T17:53:46.750Z,53.50
2018-06-14T17:56:14.877Z,54.20
2018-06-14T17:58:43.076Z,53.90
2018-06-14T18:01:11.267Z,53.80
2018-06-14T18:03:39.465Z,54.50
2018-06-14T18:06:07.778Z,53.00
2018-06-14T18:08:35.914Z,53.40
2018-06-14T18:11:04.520Z,53.80
2018-06-14T18:13:32.748Z,54.00
2018-06-14T18:18:28.936Z,54.10
2018-06-14T18:20:57.140Z,54.40
2018-06-14T18:23:25.336Z,54.00
2018-06-14T18:25:53.551Z,53.40
2018-06-14T18:28:21.797Z,53.30
2018-06-14T18:30:50.005Z,54.30
2018-06-14T18:33:18.205Z,54.60
2018-06-14T18:35:46.880Z,53.50
2018-06-14T18:38:15.066Z,54.00
2018-06-14T18:40:43.263Z,54.10
2018-06-14T18:43:11.468Z,54.60
2018-06-14T18:45:39.665Z,54.50
2018-06-14T18:48:07.863Z,54.60
2018-06-14T18:50:36.075Z,53.30
2018-06-14T18:55:32.243Z,54.20
2018-06-14T18:58:00.444Z,53.90
2018-06-14T19:00:28.760Z,53.80
2018-06-14T19:05:24.947Z,55.60
2018-06-14T19:07:53.150Z,56.50
2018-06-14T19:10:21.346Z,56.80
2018-06-14T19:12:49.529Z,58.00
2018-06-14T19:15:18.197Z,58.80
2018-06-14T19:17:46.380Z,59.00
2018-06-14T19:20:14.570Z,59.20
2018-06-14T19:22:42.796Z,59.60
2018-06-14T19:25:10.946Z,58.70
2018-06-14T19:27:39.142Z,58.60
2018-06-14T19:30:08.008Z,59.40
2018-06-14T19:32:36.231Z,60.20
2018-06-14T19:35:04.440Z,60.10
2018-06-14T19:37:32.644Z,61.70
2018-06-14T19:40:00.880Z,62.70
2018-06-14T19:44:57.014Z,63.80
2018-06-14T19:47:25.196Z,64.50
2018-06-14T19:49:53.738Z,65.10
2018-06-14T19:52:21.954Z,65.40
2018-06-14T19:54:50.167Z,65.10
2018-06-14T19:57:18.353Z,65.20
2018-06-14T19:59:46.544Z,64.70
2018-06-14T20:02:14.808Z,65.60
2018-06-14T20:04:42.997Z,65.40
2018-06-14T20:07:11.187Z,66.00
2018-06-14T20:09:39.385Z,66.20
2018-06-14T20:12:08.291Z,66.40
2018-06-14T20:14:36.484Z,67.10
2018-06-14T20:17:04.679Z,67.30
2018-06-14T20:19:32.883Z,67.50
2018-06-14T20:22:01.093Z,67.60
2018-06-14T20:24:29.329Z,67.80
2018-06-14T20:26:57.571Z,67.70
2018-06-14T20:29:25.763Z,67.00
2018-06-14T20:31:53.967Z,67.40
2018-06-14T20:34:22.193Z,67.70
2018-06-14T20:36:50.395Z,66.60
2018-06-14T20:41:46.793Z,66.90
2018-06-14T20:44:14.944Z,68.00
2018-06-14T20:46:43.168Z,68.20
2018-06-14T20:49:11.525Z,67.80
2018-06-14T20:51:39.849Z,68.50
2018-06-14T20:56:36.002Z,68.20
2018-06-14T20:59:04.219Z,69.10
2018-06-14T21:01:32.439Z,69.30
2018-06-14T21:04:00.642Z,69.30
2018-06-14T21:06:28.908Z,69.70
2018-06-14T21:08:57.468Z,68.00
2018-06-14T21:13:53.687Z,68.00
2018-06-14T21:16:21.917Z,68.60
2018-06-14T21:18:51.225Z,69.20
2018-06-14T21:21:19.467Z,69.50
2018-06-14T21:26:16.690Z,70.10
2018-06-14T21:28:45.076Z,70.70
2018-06-14T21:31:14.324Z,70.80
2018-06-14T21:33:42.525Z,70.80
2018-06-14T21:36:10.813Z,70.90
2018-06-14T21:38:39.037Z,70.90
2018-06-14T21:41:07.247Z,71.40
2018-06-14T21:43:35.428Z,70.60
2018-06-14T21:46:05.358Z,69.60
2018-06-14T21:48:33.638Z,69.20
2018-06-14T21:51:01.839Z,69.90
2018-06-14T21:53:30.212Z,70.10
2018-06-14T21:55:58.391Z,70.30
2018-06-14T21:58:27.461Z,70.60
2018-06-14T22:00:55.667Z,70.70
2018-06-14T22:03:29.210Z,70.90
2018-06-14T22:05:57.421Z,71.20
2018-06-14T22:08:25.618Z,70.70
2018-06-14T22:10:53.819Z,71.50
2018-06-14T22:13:22.131Z,71.30
2018-06-14T22:15:50.556Z,71.20
2018-06-14T22:18:18.964Z,71.40
2018-06-14T22:23:54.940Z,70.90
2018-06-14T22:26:23.304Z,71.80
2018-06-14T22:28:51.678Z,71.70
2018-06-14T22:31:19.896Z,72.50
2018-06-14T22:33:59.590Z,71.90
2018-06-14T22:36:27.785Z,72.00
2018-06-14T22:38:56.049Z,72.90
2018-06-14T22:44:02.923Z,72.50
2018-06-14T22:46:31.079Z,72.40
2018-06-14T22:48:59.267Z,72.20
2018-06-14T22:55:02.319Z,71.70
2018-06-14T22:57:30.514Z,72.60
2018-06-14T22:59:58.691Z,72.10
2018-06-14T23:02:26.881Z,72.90
2018-06-14T23:04:55.480Z,72.80
2018-06-14T23:11:29.635Z,71.50
2018-06-14T23:13:57.840Z,72.30
2018-06-14T23:16:26.023Z,72.30
2018-06-14T23:18:54.469Z,72.30
2018-06-14T23:21:22.677Z,72.30
2018-06-14T23:23:50.882Z,71.90
2018-06-14T23:26:19.060Z,71.10
2018-06-14T23:28:47.244Z,71.80
2018-06-14T23:31:15.521Z,72.40
2018-06-14T23:33:43.707Z,72.60
2018-06-14T23:36:11.911Z,73.20
2018-06-14T23:38:40.656Z,73.30
2018-06-14T23:41:08.832Z,73.50
2018-06-14T23:46:05.509Z,73.20
2018-06-14T23:48:33.709Z,72.90
2018-06-14T23:51:01.936Z,72.80
2018-06-14T23:53:30.128Z,72.80
2018-06-14T23:55:58.324Z,72.80
2018-06-14T23:58:26.495Z,72.80
